Time;durP1;ratioP1;P1;durP2;ratioP2;P2;SDS_P1;SDS_P2;PMS_P1;PMS_P2;Temp;Humidity;BMP_temperature;BMP_pressure;BME280_temperature;BME280_humidity;BME280_pressure;Samples;Min_cycle;Max_cycle;Signal;HPM_P1;HPM_P2
2021/01/09 00:00:58;;;;;;;1.93;1.07;;;;;;;2.97;77.68;94222.03;5091715;28;20181;-74
2021/01/09 00:03:24;;;;;;;0.80;0.80;;;;;;;2.87;77.73;94228.44;5073461;28;20554;-73
2021/01/09 00:24:35;;;;;;;1.25;1.25;;;;;;;3.71;74.62;94250.75;5129606;27;20551;-72
2021/01/09 00:27:00;;;;;;;1.10;1.10;;;;;;;3.43;75.49;94242.47;5094799;28;20237;-73
2021/01/09 00:29:26;;;;;;;1.43;1.33;;;;;;;3.44;75.87;94240.59;5129275;28;20173;-72
2021/01/09 00:31:52;;;;;;;1.50;1.40;;;;;;;3.54;75.36;94244.75;5129723;28;20176;-73
2021/01/09 00:34:20;;;;;;;1.25;1.17;;;;;;;3.48;75.49;94246.00;5129747;28;20176;-73
2021/01/09 00:36:47;;;;;;;1.10;1.10;;;;;;;3.03;76.48;94243.75;5111625;28;20679;-73
2021/01/09 00:39:12;;;;;;;1.02;1.02;;;;;;;2.97;77.66;94256.31;5094338;27;20177;-73
2021/01/09 00:41:38;;;;;;;1.27;1.17;;;;;;;3.07;77.25;94249.97;5129446;28;20540;-74
2021/01/09 00:44:03;;;;;;;1.10;1.10;;;;;;;3.16;77.39;94248.09;5129552;28;20181;-73
2021/01/09 00:46:29;;;;;;;1.10;1.10;;;;;;;3.18;76.89;94245.91;5129232;28;20174;-74
2021/01/09 00:48:54;;;;;;;1.20;1.10;;;;;;;3.23;76.99;94247.63;5111129;28;20172;-74
2021/01/09 00:51:20;;;;;;;1.23;1.13;;;;;;;3.21;76.65;94241.88;5129180;28;20169;-74
2021/01/09 00:53:45;;;;;;;1.57;1.30;;;;;;;3.25;76.65;94243.56;5110800;27;20284;-75
2021/01/09 00:56:14;;;;;;;1.00;1.00;;;;;;;3.14;76.75;94242.34;5128980;28;20180;-74
2021/01/09 00:58:40;;;;;;;1.02;1.02;;;;;;;3.28;76.97;94256.16;5110907;28;20203;-74
2021/01/09 01:01:06;;;;;;;1.23;1.13;;;;;;;3.23;76.60;94255.53;5129149;28;20165;-73
2021/01/09 01:03:31;;;;;;;1.10;1.10;;;;;;;3.19;76.64;94268.56;5110590;28;20225;-74
2021/01/09 01:05:56;;;;;;;1.47;1.37;;;;;;;3.20;76.66;94259.59;5110762;28;20173;-74
2021/01/09 01:08:22;;;;;;;1.30;1.20;;;;;;;3.23;76.36;94263.44;5093518;28;20651;-75
2021/01/09 01:10:48;;;;;;;1.00;1.00;;;;;;;3.15;77.44;94275.56;5128898;28;20196;-74
2021/01/09 01:13:14;;;;;;;1.60;1.50;;;;;;;3.30;76.68;94272.44;5110332;28;20289;-74
2021/01/09 01:15:39;;;;;;;1.20;1.20;;;;;;;3.04;77.26;94261.16;5128917;27;20177;-74
2021/01/09 01:18:05;;;;;;;1.40;1.30;;;;;;;3.17;77.19;94265.47;5128614;28;20180;-74
2021/01/09 01:20:31;;;;;;;1.30;1.20;;;;;;;3.23;76.90;94261.59;5128808;28;20173;-76
2021/01/09 01:22:56;;;;;;;1.10;1.10;;;;;;;3.17;77.17;94257.56;5110122;28;20217;-74
2021/01/09 01:25:21;;;;;;;2.67;1.33;;;;;;;3.11;76.22;94243.75;5115710;28;20174;-74
2021/01/09 01:27:47;;;;;;;1.63;1.40;;;;;;;3.27;77.37;94269.66;5114910;28;20215;-74
2021/01/09 01:30:13;;;;;;;1.27;1.10;;;;;;;3.26;76.55;94268.88;5114719;28;20196;-74
2021/01/09 01:32:38;;;;;;;1.23;1.23;;;;;;;3.19;76.57;94252.75;5096594;28;20197;-74
2021/01/09 01:35:04;;;;;;;2.57;1.30;;;;;;;3.22;76.64;94248.72;5114574;28;20200;-74
2021/01/09 01:37:30;;;;;;;1.30;1.20;;;;;;;3.33;76.42;94271.81;5114622;28;20234;-75
2021/01/09 01:39:55;;;;;;;1.47;1.37;;;;;;;3.18;77.04;94267.03;5114416;28;20645;-74
2021/01/09 01:42:21;;;;;;;1.07;1.07;;;;;;;3.06;77.24;94249.19;5114588;28;20173;-73
2021/01/09 01:44:46;;;;;;;0.90;0.90;;;;;;;3.29;76.49;94257.69;5114358;28;20183;-74
2021/01/09 01:47:18;;;;;;;1.20;1.10;;;;;;;3.22;76.74;94260.03;5114621;28;20169;-74
2021/01/09 01:49:45;;;;;;;1.60;1.50;;;;;;;3.15;76.45;94251.84;5096063;28;20194;-74
2021/01/09 01:52:12;;;;;;;1.13;1.10;;;;;;;3.17;76.76;94274.16;5079597;28;20204;-74
2021/01/09 01:54:38;;;;;;;1.45;1.35;;;;;;;3.35;76.41;94269.63;5114236;28;20630;-74
2021/01/09 01:57:04;;;;;;;1.10;1.10;;;;;;;3.48;75.64;94256.56;5096011;28;20177;-74
2021/01/09 01:59:29;;;;;;;3.33;1.33;;;;;;;3.37;76.21;94262.19;5096189;28;20205;-74
2021/01/09 02:01:55;;;;;;;1.20;1.10;;;;;;;3.40;75.95;94252.84;5114132;28;20641;-73
2021/01/09 02:04:20;;;;;;;1.27;1.20;;;;;;;3.38;76.12;94260.31;5114314;28;20173;-73
2021/01/09 02:06:46;;;;;;;2.07;1.40;;;;;;;3.50;75.51;94260.44;5079079;28;20541;-75
2021/01/09 02:09:30;;;;;;;1.10;1.10;;;;;;;3.38;75.99;94261.09;5079249;28;20170;-74
2021/01/09 02:12:07;;;;;;;1.10;1.10;;;;;;;3.41;76.01;94268.38;5077920;28;20188;-73
2021/01/09 02:14:45;;;;;;;1.63;1.52;;;;;;;3.45;75.33;94271.94;5096067;28;20231;-74
2021/01/09 02:17:10;;;;;;;1.50;1.40;;;;;;;3.41;75.11;94263.09;5095815;28;20184;-74
2021/01/09 02:19:43;;;;;;;1.10;1.10;;;;;;;3.23;75.95;94253.66;5095788;28;20177;-73
2021/01/09 02:22:12;;;;;;;1.08;1.08;;;;;;;3.14;76.55;94255.53;5113324;28;20260;-74
2021/01/09 02:24:38;;;;;;;1.17;1.17;;;;;;;3.12;77.10;94276.19;5095392;28;20241;-73
2021/01/09 02:27:05;;;;;;;1.20;1.20;;;;;;;3.36;76.14;94268.53;5095017;28;20665;-74
2021/01/09 02:29:40;;;;;;;1.27;1.27;;;;;;;3.22;76.83;94273.22;5095623;28;20162;-73
2021/01/09 02:32:08;;;;;;;1.40;1.30;;;;;;;3.19;76.52;94258.00;5095261;28;20204;-73
2021/01/09 02:34:40;;;;;;;1.02;1.02;;;;;;;3.34;75.95;94257.53;5078724;28;20176;-74
2021/01/09 02:37:06;;;;;;;1.30;1.10;;;;;;;3.26;76.41;94260.97;5094549;28;20174;-73
2021/01/09 02:39:31;;;;;;;1.57;1.47;;;;;;;3.25;76.63;94263.91;5095364;28;20269;-73
2021/01/09 02:41:57;;;;;;;1.50;1.40;;;;;;;3.20;76.57;94262.22;5113554;28;20606;-73
2021/01/09 02:44:22;;;;;;;1.40;1.30;;;;;;;3.20;76.83;94262.22;5094605;28;20189;-73
2021/01/09 02:46:48;;;;;;;1.63;1.53;;;;;;;3.23;76.13;94264.22;5095045;28;20176;-73
2021/01/09 02:49:13;;;;;;;1.50;1.40;;;;;;;3.29;76.47;94270.09;5095085;28;20176;-74
2021/01/09 02:51:39;;;;;;;1.57;1.47;;;;;;;3.28;76.19;94269.34;5113075;28;20182;-73
2021/01/09 02:54:04;;;;;;;1.37;1.27;;;;;;;3.25;76.29;94269.19;5113207;28;20208;-73
2021/01/09 02:56:30;;;;;;;1.47;1.37;;;;;;;3.26;76.01;94271.53;5113293;28;20182;-73
2021/01/09 02:58:55;;;;;;;1.50;1.40;;;;;;;3.28;76.16;94274.63;5094680;28;20184;-73
2021/01/09 03:01:28;;;;;;;1.63;1.40;;;;;;;3.23;76.14;94272.13;5112899;28;20649;-73
2021/01/09 03:03:53;;;;;;;1.63;1.52;;;;;;;3.33;76.47;94277.09;5078164;28;20661;-73
2021/01/09 03:06:19;;;;;;;1.03;1.03;;;;;;;3.31;75.97;94268.72;5112984;28;20197;-73
2021/01/09 03:08:44;;;;;;;1.13;1.13;;;;;;;3.21;76.43;94268.28;5094232;28;20226;-73
2021/01/09 03:11:10;;;;;;;1.60;1.50;;;;;;;3.34;75.82;94273.34;5112970;28;20174;-73
2021/01/09 03:13:35;;;;;;;1.80;1.70;;;;;;;3.17;76.35;94268.13;5112490;28;20711;-73
2021/01/09 03:16:01;;;;;;;1.50;1.40;;;;;;;3.15;76.66;94267.66;5094732;28;20231;-74
2021/01/09 03:18:26;;;;;;;1.47;1.23;;;;;;;3.22;76.29;94269.81;5112395;28;20529;-73
2021/01/09 03:20:52;;;;;;;1.30;1.20;;;;;;;3.09;76.56;94259.13;5112608;28;20173;-73
2021/01/09 03:23:17;;;;;;;1.50;1.40;;;;;;;3.14;76.36;94274.81;5094371;28;20224;-74
2021/01/09 03:25:42;;;;;;;1.30;1.30;;;;;;;3.19;76.41;94269.34;5112411;28;20611;-73
2021/01/09 03:28:08;;;;;;;1.70;1.27;;;;;;;3.14;76.64;94274.00;5094346;28;20157;-74
2021/01/09 03:30:33;;;;;;;1.10;1.10;;;;;;;3.13;76.49;94267.94;5093915;28;20213;-74
2021/01/09 03:32:59;;;;;;;1.30;1.20;;;;;;;3.02;77.10;94265.94;5112419;28;20555;-72
2021/01/09 03:35:26;;;;;;;1.40;1.30;;;;;;;3.11;76.81;94279.91;5112134;28;20178;-72
2021/01/09 03:37:52;;;;;;;1.38;1.27;;;;;;;3.32;75.59;94277.41;5094506;28;20261;-74
2021/01/09 03:40:18;;;;;;;1.23;1.23;;;;;;;3.38;75.58;94278.78;5112168;28;20169;-73
2021/01/09 03:42:43;;;;;;;1.47;1.37;;;;;;;3.33;76.11;94279.72;5112306;28;20170;-73
2021/01/09 03:45:09;;;;;;;1.50;1.40;;;;;;;3.26;76.13;94283.94;5112332;28;20177;-74
2021/01/09 03:47:35;;;;;;;1.50;1.40;;;;;;;3.21;76.38;94281.47;5112085;28;20177;-74
2021/01/09 03:50:01;;;;;;;1.52;1.42;;;;;;;3.05;76.84;94289.06;5112214;28;20552;-73
2021/01/09 03:52:27;;;;;;;1.60;1.50;;;;;;;3.17;76.06;94289.22;5111861;28;20201;-73
2021/01/09 03:54:52;;;;;;;1.40;1.30;;;;;;;3.24;76.17;94297.44;5093956;28;20176;-75
2021/01/09 03:57:18;;;;;;;2.20;2.00;;;;;;;3.22;76.15;94301.47;5093439;28;20672;-74
2021/01/09 03:59:43;;;;;;;1.70;1.60;;;;;;;3.34;75.66;94296.34;5112106;28;20165;-72
2021/01/09 04:02:09;;;;;;;1.80;1.70;;;;;;;3.28;75.56;94297.59;5112016;28;20200;-72
2021/01/09 04:04:34;;;;;;;1.87;1.67;;;;;;;3.15;76.47;94313.28;5093813;28;20178;-71
2021/01/09 04:07:00;;;;;;;1.37;1.37;;;;;;;2.90;76.48;94312.19;5092746;28;20660;-72
2021/01/09 04:09:25;;;;;;;1.60;1.50;;;;;;;2.99;76.65;94320.09;5011352;28;20736;-73
2021/01/09 04:11:51;;;;;;;2.00;1.50;;;;;;;3.05;76.55;94328.66;5091541;28;20173;-73
2021/01/09 04:14:16;;;;;;;1.47;1.30;;;;;;;3.13;75.90;94319.94;5091265;28;20261;-74
2021/01/09 04:16:42;;;;;;;1.60;1.50;;;;;;;3.18;75.68;94325.84;5091604;28;20170;-73
2021/01/09 04:19:07;;;;;;;3.00;1.50;;;;;;;3.18;75.60;94328.47;5091322;28;20178;-76
2021/01/09 04:21:43;;;;;;;1.77;1.50;;;;;;;3.20;75.15;94330.81;5091589;28;20177;-72
2021/01/09 04:24:08;;;;;;;1.48;1.38;;;;;;;3.15;76.17;94331.75;5069644;28;20333;-74
2021/01/09 04:26:34;;;;;;;1.60;1.50;;;;;;;3.22;75.99;94333.13;5071347;28;20175;-75
2021/01/09 04:28:59;;;;;;;1.80;1.70;;;;;;;2.94;76.58;94335.31;5071158;28;20167;-74
2021/01/09 04:31:26;;;;;;;1.43;1.33;;;;;;;3.21;75.55;94342.16;5071145;28;20635;-72
2021/01/09 04:33:51;;;;;;;1.70;1.60;;;;;;;3.18;76.34;94325.84;5052439;28;20248;-73
2021/01/09 04:36:17;;;;;;;1.80;1.70;;;;;;;3.26;75.12;94345.41;5071158;28;20179;-73
2021/01/09 04:38:42;;;;;;;1.57;1.47;;;;;;;3.31;75.13;94342.59;5069296;28;20215;-73
2021/01/09 04:41:08;;;;;;;1.67;1.57;;;;;;;3.20;75.55;94344.00;5071178;28;20171;-72
2021/01/09 04:43:33;;;;;;;1.80;1.70;;;;;;;3.18;75.64;94335.63;5053219;28;20194;-73
2021/01/09 04:46:00;;;;;;;1.20;1.20;;;;;;;3.23;75.71;94338.09;5069744;28;20194;-74
2021/01/09 04:48:25;;;;;;;1.65;1.55;;;;;;;3.15;75.42;94344.94;5053329;28;20651;-74
2021/01/09 04:50:51;;;;;;;1.17;1.17;;;;;;;3.08;75.97;94349.88;5052963;28;20174;-73
2021/01/09 04:53:20;;;;;;;3.33;1.80;;;;;;;3.32;74.93;94360.00;5069575;28;20199;-74
2021/01/09 04:55:46;;;;;;;1.60;1.50;;;;;;;3.27;75.27;94356.72;5052866;28;20171;-72
2021/01/09 04:58:12;;;;;;;1.48;1.38;;;;;;;3.21;75.69;94363.25;5069909;28;20171;-73
2021/01/09 05:00:37;;;;;;;2.80;1.70;;;;;;;3.25;75.22;94359.66;5073794;28;20163;-73
2021/01/09 05:03:03;;;;;;;1.83;1.73;;;;;;;3.37;74.38;94362.47;5073135;28;20190;-72
2021/01/09 05:05:29;;;;;;;1.70;1.60;;;;;;;3.36;74.54;94362.75;5056476;28;20213;-72
2021/01/09 05:07:54;;;;;;;1.53;1.40;;;;;;;3.16;75.38;94359.69;5073285;28;20423;-72
2021/01/09 05:10:19;;;;;;;2.20;1.83;;;;;;;3.23;74.78;94364.47;5073391;28;20170;-74
2021/01/09 05:12:45;;;;;;;1.53;1.43;;;;;;;3.24;74.84;94370.53;5073112;28;20285;-72
2021/01/09 05:15:11;;;;;;;1.60;1.50;;;;;;;3.22;74.24;94367.44;5056269;28;20183;-73
2021/01/09 05:17:38;;;;;;;1.70;1.60;;;;;;;3.17;75.03;94379.69;5074306;28;20250;-69
2021/01/09 05:20:05;;;;;;;1.48;1.35;;;;;;;3.07;75.18;94366.81;5073165;28;20175;-71
2021/01/09 05:22:31;;;;;;;1.90;1.70;;;;;;;2.98;75.76;94383.72;5059416;28;20241;-71
2021/01/09 05:24:56;;;;;;;2.43;1.50;;;;;;;3.01;75.65;94383.88;5059904;28;20171;-72
2021/01/09 05:27:22;;;;;;;1.97;1.77;;;;;;;2.65;76.73;94394.66;5059225;28;20198;-72
2021/01/09 05:29:54;;;;;;;1.80;1.60;;;;;;;2.82;76.30;94393.94;5059724;28;20170;-72
2021/01/09 05:32:20;;;;;;;2.53;1.80;;;;;;;2.97;75.95;94395.34;5059179;28;20363;-72
2021/01/09 05:34:55;;;;;;;1.95;1.80;;;;;;;2.95;75.24;94394.88;5059598;28;20663;-72
2021/01/09 05:37:21;;;;;;;2.00;1.80;;;;;;;3.07;75.28;94406.38;5075460;28;20182;-73
2021/01/09 05:39:56;;;;;;;1.95;1.80;;;;;;;3.03;74.91;94410.72;5094187;28;20170;-73
2021/01/09 05:42:26;;;;;;;2.10;1.90;;;;;;;2.95;76.01;94405.44;5059155;28;20705;-73
2021/01/09 05:44:56;;;;;;;2.25;1.88;;;;;;;2.99;75.24;94409.00;5059600;28;20659;-72
2021/01/09 05:47:24;;;;;;;2.00;1.90;;;;;;;3.08;75.82;94423.75;5075775;28;20167;-72
2021/01/09 05:49:50;;;;;;;2.10;1.90;;;;;;;2.82;76.08;94422.94;5076152;28;20182;-73
2021/01/09 05:52:16;;;;;;;2.40;1.95;;;;;;;3.10;75.63;94428.72;5093904;28;20198;-73
2021/01/09 05:54:42;;;;;;;1.77;1.67;;;;;;;2.96;75.59;94431.47;5059138;28;20227;-73
2021/01/09 05:57:07;;;;;;;3.17;1.73;;;;;;;3.05;75.88;94442.84;5058654;28;20265;-72
2021/01/09 05:59:33;;;;;;;2.13;2.03;;;;;;;3.09;74.62;94430.59;5058698;28;20174;-73
2021/01/09 06:01:59;;;;;;;2.00;1.80;;;;;;;3.23;73.90;94434.94;5075620;28;20174;-73
2021/01/09 06:04:31;;;;;;;1.77;1.60;;;;;;;3.05;74.49;94424.38;5059061;28;20178;-72
2021/01/09 06:07:08;;;;;;;1.73;1.63;;;;;;;3.13;74.71;94436.00;5059870;28;20163;-72
2021/01/09 06:09:35;;;;;;;2.25;2.00;;;;;;;3.24;74.29;94425.94;5058695;28;20220;-72
2021/01/09 06:12:06;;;;;;;2.00;1.90;;;;;;;2.82;74.72;94421.06;5075562;28;20183;-73
2021/01/09 06:14:33;;;;;;;2.15;1.90;;;;;;;2.91;75.06;94427.13;5093313;28;20203;-72
2021/01/09 06:16:58;;;;;;;2.72;2.10;;;;;;;3.19;74.25;94432.13;5075537;28;20258;-73
2021/01/09 06:19:24;;;;;;;2.43;1.83;;;;;;;3.28;74.26;94438.22;5041754;28;20251;-73
2021/01/09 06:21:53;;;;;;;3.33;2.33;;;;;;;2.86;75.43;94434.41;5058769;28;20189;-73
2021/01/09 06:24:18;;;;;;;2.45;1.80;;;;;;;3.02;75.29;94437.38;5059018;28;20287;-73
2021/01/09 06:26:44;;;;;;;2.97;2.43;;;;;;;3.05;75.65;94442.84;5058778;28;20174;-72
2021/01/09 06:29:19;;;;;;;2.10;1.90;;;;;;;3.12;75.50;94458.22;5058462;28;20166;-72
2021/01/09 06:31:55;;;;;;;3.55;1.98;;;;;;;3.13;74.94;94455.25;5093324;28;20181;-73
2021/01/09 06:34:27;;;;;;;2.13;1.92;;;;;;;3.08;74.84;94463.31;5075392;28;20234;-76
2021/01/09 06:37:04;;;;;;;2.40;2.08;;;;;;;2.97;75.58;94477.88;5059086;28;20158;-74
2021/01/09 06:39:32;;;;;;;3.42;2.58;;;;;;;3.08;75.39;94486.28;5076319;28;20170;-74
2021/01/09 06:41:58;;;;;;;3.83;2.63;;;;;;;3.06;75.46;94494.50;5058554;28;20186;-75
2021/01/09 06:44:24;;;;;;;2.30;2.10;;;;;;;3.03;75.83;94500.41;5057558;28;20574;-74
2021/01/09 06:46:51;;;;;;;3.27;2.97;;;;;;;3.18;75.27;94501.81;5066893;28;20174;-74
2021/01/09 06:49:18;;;;;;;3.25;2.95;;;;;;;3.11;75.59;94499.66;5041083;28;20586;-77
2021/01/09 06:51:51;;;;;;;2.97;2.42;;;;;;;3.25;74.95;94517.19;5062965;28;20177;-75
2021/01/09 06:54:17;;;;;;;3.28;2.63;;;;;;;3.20;75.58;94526.06;5072400;28;20186;-74
2021/01/09 06:56:46;;;;;;;3.28;2.78;;;;;;;3.14;75.48;94527.25;5090749;28;20162;-74
2021/01/09 06:59:37;;;;;;;5.97;2.95;;;;;;;3.26;75.34;94529.34;5068836;28;20177;-77
2021/01/09 07:02:21;;;;;;;3.47;2.53;;;;;;;3.14;76.05;94535.16;5087177;28;20241;-73
2021/01/09 07:04:58;;;;;;;3.85;2.80;;;;;;;3.19;75.77;94540.31;5069846;28;20179;-74
2021/01/09 07:07:30;;;;;;;3.83;3.03;;;;;;;3.11;74.81;94544.50;5071378;28;20182;-80
2021/01/09 07:10:15;;;;;;;3.33;2.58;;;;;;;2.66;76.50;94543.84;5073676;28;20197;-72
2021/01/09 07:12:45;;;;;;;2.70;2.50;;;;;;;3.00;76.50;94545.06;5087308;28;20731;-73
2021/01/09 07:15:11;;;;;;;3.92;2.80;;;;;;;2.92;76.16;94555.28;5069615;28;20182;-74
2021/01/09 07:17:40;;;;;;;3.07;2.77;;;;;;;3.07;76.04;94553.31;5074057;28;20179;-72
2021/01/09 07:20:09;;;;;;;3.47;3.00;;;;;;;3.08;75.94;94568.06;5073904;28;20166;-72
2021/01/09 07:22:42;;;;;;;4.68;3.03;;;;;;;3.16;75.76;94577.88;5056640;28;20255;-71
2021/01/09 07:25:09;;;;;;;3.67;3.20;;;;;;;3.21;75.58;94584.88;5068701;28;20207;-72
2021/01/09 07:27:41;;;;;;;3.67;2.92;;;;;;;3.19;75.76;94588.56;5058499;28;20179;-72
2021/01/09 07:30:08;;;;;;;4.10;2.95;;;;;;;3.17;75.51;94589.97;5053634;28;20221;-72
2021/01/09 07:32:43;;;;;;;4.40;3.38;;;;;;;3.22;75.41;94589.06;5070359;28;20210;-72
2021/01/09 07:35:09;;;;;;;3.88;2.97;;;;;;;3.17;75.37;94605.81;5070705;28;20194;-73
2021/01/09 07:37:37;;;;;;;4.47;3.03;;;;;;;3.05;76.19;94613.53;5071711;28;20209;-73
2021/01/09 07:40:13;;;;;;;3.28;2.97;;;;;;;2.78;77.03;94604.69;5070208;28;20167;-73
2021/01/09 07:42:39;;;;;;;4.65;3.00;;;;;;;2.93;76.70;94606.19;5073798;28;20575;-73
2021/01/09 07:45:06;;;;;;;3.72;3.33;;;;;;;2.83;77.10;94595.88;5072634;28;20193;-73
2021/01/09 07:47:31;;;;;;;4.15;3.58;;;;;;;3.01;76.61;94615.19;5073662;28;20557;-73
2021/01/09 07:49:57;;;;;;;5.00;2.73;;;;;;;3.04;76.47;94614.59;5040195;28;20177;-73
2021/01/09 07:52:25;;;;;;;3.43;3.13;;;;;;;3.17;75.80;94614.50;5073663;28;20247;-73
2021/01/09 07:54:54;;;;;;;3.33;3.03;;;;;;;3.29;75.24;94615.78;5055950;28;20168;-73
2021/01/09 07:57:24;;;;;;;3.33;2.47;;;;;;;2.95;76.30;94619.06;5088476;28;20193;-73
2021/01/09 07:59:56;;;;;;;4.15;3.08;;;;;;;3.02;77.43;94622.03;5091494;28;20208;-73
2021/01/09 08:02:37;;;;;;;6.15;4.35;;;;;;;3.05;76.94;94608.25;5090382;28;20186;-73
2021/01/09 08:05:19;;;;;;;5.50;3.47;;;;;;;3.21;76.45;94606.75;5090416;28;20198;-73
2021/01/09 08:07:48;;;;;;;4.97;3.50;;;;;;;3.33;75.73;94616.75;5090553;28;20613;-72
2021/01/09 08:10:20;;;;;;;3.58;3.15;;;;;;;3.16;76.08;94618.22;5091467;28;20216;-73
2021/01/09 08:12:47;;;;;;;4.20;3.80;;;;;;;3.12;76.51;94616.50;5073784;28;20241;-72
2021/01/09 08:15:13;;;;;;;4.60;3.20;;;;;;;3.15;75.62;94608.75;5072948;28;20186;-73
2021/01/09 08:17:39;;;;;;;3.97;3.13;;;;;;;3.17;76.48;94616.38;5090414;28;20181;-73
2021/01/09 08:20:09;;;;;;;3.72;3.42;;;;;;;3.04;76.53;94610.09;5073390;28;20162;-73
2021/01/09 08:22:35;;;;;;;4.45;3.75;;;;;;;3.25;76.67;94617.47;5091364;28;20214;-73
2021/01/09 08:25:11;;;;;;;4.20;3.80;;;;;;;3.26;75.97;94617.19;5073192;28;20223;-73
2021/01/09 08:27:48;;;;;;;4.38;3.80;;;;;;;3.12;76.40;94614.63;5073349;28;20633;-73
2021/01/09 08:30:15;;;;;;;4.63;3.45;;;;;;;3.21;76.21;94619.19;5089820;28;20680;-73
2021/01/09 08:32:41;;;;;;;5.63;3.83;;;;;;;3.26;76.10;94629.59;5090098;28;20221;-73
2021/01/09 08:35:07;;;;;;;4.77;3.80;;;;;;;3.16;76.39;94618.22;5092586;28;20202;-73
2021/01/09 08:37:33;;;;;;;8.18;3.90;;;;;;;3.22;76.07;94626.00;5060209;28;20545;-73
2021/01/09 08:40:08;;;;;;;4.80;3.50;;;;;;;3.13;76.46;94634.66;5093936;28;20215;-73
2021/01/09 08:42:34;;;;;;;7.13;4.13;;;;;;;3.23;76.26;94638.88;5077475;28;20649;-73
2021/01/09 08:44:59;;;;;;;4.67;4.00;;;;;;;3.10;76.50;94610.75;5076942;28;20216;-73
2021/01/09 08:47:25;;;;;;;4.87;4.37;;;;;;;3.36;75.59;94626.66;5094193;28;20231;-73
2021/01/09 08:49:50;;;;;;;5.93;3.90;;;;;;;3.27;76.59;94631.16;5077052;28;20235;-72
2021/01/09 08:52:16;;;;;;;5.20;4.23;;;;;;;3.36;75.67;94634.59;5094225;28;20178;-73
2021/01/09 08:54:43;;;;;;;6.25;4.40;;;;;;;3.15;77.27;94629.09;5076903;28;20194;-73
2021/01/09 08:57:09;;;;;;;7.05;4.57;;;;;;;3.35;76.66;94627.75;5093615;28;20178;-73
2021/01/09 08:59:35;;;;;;;8.87;4.90;;;;;;;3.32;76.24;94626.53;5076974;28;20706;-73
2021/01/09 09:02:01;;;;;;;8.07;5.33;;;;;;;3.29;76.79;94619.19;5076749;28;20170;-73
2021/01/09 09:04:26;;;;;;;5.03;4.35;;;;;;;3.33;75.99;94625.44;5093799;28;20561;-72
2021/01/09 09:07:08;;;;;;;5.23;4.00;;;;;;;3.37;76.04;94617.69;5076565;28;20178;-73
2021/01/09 09:09:34;;;;;;;4.72;4.15;;;;;;;3.48;75.63;94620.81;5078124;28;20174;-73
2021/01/09 09:11:59;;;;;;;5.30;4.73;;;;;;;3.38;75.59;94617.38;5094585;28;20178;-73
2021/01/09 09:14:25;;;;;;;5.43;4.50;;;;;;;3.29;76.15;94606.00;5076636;28;20262;-73
2021/01/09 09:17:01;;;;;;;6.33;4.60;;;;;;;3.34;77.06;94610.38;5094495;28;20224;-73
2021/01/09 09:19:27;;;;;;;7.13;4.80;;;;;;;3.53;75.62;94605.59;5093127;28;20443;-73
2021/01/09 09:21:56;;;;;;;6.37;4.60;;;;;;;3.57;75.05;94609.19;5094282;28;20638;-73
2021/01/09 09:24:36;;;;;;;7.47;5.20;;;;;;;3.51;75.40;94599.09;5094392;28;20714;-73
2021/01/09 09:27:02;;;;;;;6.03;4.32;;;;;;;3.57;75.92;94598.63;5077496;28;20189;-73
2021/01/09 09:29:31;;;;;;;5.97;4.90;;;;;;;3.47;75.52;94603.41;5092939;28;20194;-74
2021/01/09 09:31:57;;;;;;;6.05;4.63;;;;;;;3.61;75.50;94614.66;5048024;28;20178;-75
2021/01/09 09:34:26;;;;;;;6.07;4.57;;;;;;;3.63;75.48;94610.59;5075401;28;20198;-83
2021/01/09 09:36:52;;;;;;;4.43;4.03;;;;;;;3.59;75.39;94614.16;5094070;28;20265;-74
2021/01/09 09:39:19;;;;;;;6.33;4.67;;;;;;;3.66;74.77;94617.16;5094153;28;20614;-74
2021/01/09 09:41:54;;;;;;;6.38;4.70;;;;;;;3.41;74.62;94598.28;5074615;28;20189;-81
2021/01/09 09:44:20;;;;;;;6.10;4.35;;;;;;;3.32;76.19;94597.50;5056711;28;20270;-82
2021/01/09 09:46:48;;;;;;;6.60;4.78;;;;;;;3.44;75.77;94615.38;5055518;28;20229;-74
2021/01/09 09:49:13;;;;;;;7.15;4.88;;;;;;;3.45;75.26;94601.09;5056238;28;20171;-74
2021/01/09 09:51:39;;;;;;;7.50;5.07;;;;;;;3.51;75.63;94601.72;5055694;28;20205;-73
2021/01/09 09:54:05;;;;;;;6.67;5.07;;;;;;;3.39;75.32;94603.09;5039529;28;20741;-74
2021/01/09 09:56:38;;;;;;;8.83;5.33;;;;;;;3.18;76.62;94596.81;5055945;28;20167;-74
2021/01/09 09:59:07;;;;;;;6.60;5.13;;;;;;;3.32;76.56;94592.22;5038890;28;20201;-74
2021/01/09 10:01:33;;;;;;;6.65;5.13;;;;;;;3.64;75.76;94596.31;5055852;28;20207;-75
2021/01/09 10:04:00;;;;;;;8.07;5.03;;;;;;;3.77;75.05;94591.25;5073180;28;20661;-74
2021/01/09 10:06:39;;;;;;;7.65;6.07;;;;;;;3.59;75.55;94569.28;5073506;28;20619;-74
2021/01/09 10:09:17;;;;;;;7.95;4.88;;;;;;;3.64;75.80;94577.06;5054936;28;20187;-74
2021/01/09 10:11:43;;;;;;;15.68;6.93;;;;;;;3.56;75.99;94575.19;5055683;28;20171;-73
2021/01/09 10:14:08;;;;;;;12.53;6.40;;;;;;;3.89;75.65;94583.47;5055363;28;20268;-74
2021/01/09 10:16:35;;;;;;;8.13;5.80;;;;;;;3.80;75.29;94580.81;5073319;28;20567;-74
2021/01/09 10:19:00;;;;;;;9.07;6.03;;;;;;;3.83;74.40;94582.84;5054792;28;20194;-75
2021/01/09 10:21:27;;;;;;;7.47;5.23;;;;;;;3.66;75.26;94588.88;5073264;28;20728;-74
2021/01/09 10:23:53;;;;;;;10.57;5.72;;;;;;;3.86;74.25;94587.50;5071611;28;20215;-74
2021/01/09 10:26:44;;;;;;;9.83;6.27;;;;;;;3.69;75.68;94598.81;5073117;28;20202;-74
2021/01/09 10:29:10;;;;;;;7.38;5.85;;;;;;;3.77;75.92;94581.44;5069579;28;20211;-74
2021/01/09 10:31:38;;;;;;;8.83;6.53;;;;;;;3.85;76.00;94580.66;5072908;28;20268;-73
2021/01/09 10:34:05;;;;;;;8.93;6.13;;;;;;;3.65;75.81;94579.41;5071416;28;20210;-74
2021/01/09 10:36:32;;;;;;;8.05;5.88;;;;;;;3.78;75.23;94577.72;5055079;28;20186;-74
2021/01/09 10:38:58;;;;;;;11.02;6.28;;;;;;;3.68;75.19;94578.00;5037604;28;20272;-74
2021/01/09 10:41:24;;;;;;;8.40;6.43;;;;;;;3.84;75.62;94571.19;5055039;28;20179;-74
2021/01/09 10:43:49;;;;;;;9.07;6.33;;;;;;;3.84;75.26;94576.47;5071294;28;20325;-74
2021/01/09 10:46:23;;;;;;;8.63;5.83;;;;;;;3.83;75.25;94574.16;5055016;28;20179;-74
2021/01/09 10:48:48;;;;;;;9.10;6.88;;;;;;;3.64;76.29;94575.19;5072468;28;20181;-74
2021/01/09 10:51:15;;;;;;;8.80;6.27;;;;;;;3.85;76.02;94571.97;5071556;28;20175;-74
2021/01/09 10:53:41;;;;;;;8.15;5.55;;;;;;;3.93;75.68;94579.91;5054403;28;20194;-74
2021/01/09 10:56:06;;;;;;;9.00;5.50;;;;;;;3.88;75.37;94580.06;5072343;28;20181;-73
2021/01/09 10:58:32;;;;;;;9.90;5.80;;;;;;;3.94;75.21;94583.34;5071750;28;20190;-74
2021/01/09 11:00:58;;;;;;;7.27;5.03;;;;;;;3.85;75.88;94585.19;5054263;28;20186;-74
2021/01/09 11:03:23;;;;;;;7.47;5.33;;;;;;;3.88;75.67;94579.28;5054676;28;20167;-73
2021/01/09 11:05:48;;;;;;;7.77;5.13;;;;;;;3.78;75.49;94577.72;5054191;28;20189;-74
2021/01/09 11:08:14;;;;;;;7.00;4.97;;;;;;;3.92;75.19;94586.25;5087837;28;20209;-73
2021/01/09 11:10:40;;;;;;;7.07;5.17;;;;;;;3.98;74.84;94597.44;5092355;28;20171;-73
2021/01/09 11:13:05;;;;;;;7.37;5.27;;;;;;;4.05;74.64;94594.38;5073430;28;20224;-73
2021/01/09 11:15:31;;;;;;;7.10;5.60;;;;;;;3.89;74.93;94600.09;5092106;28;20174;-74
2021/01/09 11:17:56;;;;;;;8.03;6.03;;;;;;;3.80;75.06;94606.44;5092352;28;20166;-74
2021/01/09 11:20:22;;;;;;;8.23;6.37;;;;;;;3.82;76.55;94605.06;5092119;28;20631;-74
2021/01/09 11:22:47;;;;;;;8.43;5.60;;;;;;;3.91;75.15;94592.63;5092139;28;20694;-73
2021/01/09 11:25:13;;;;;;;8.27;5.73;;;;;;;4.01;74.75;94596.84;5057530;28;20217;-74
2021/01/09 11:27:38;;;;;;;9.67;6.63;;;;;;;3.75;75.17;94575.69;5092017;28;20194;-74
2021/01/09 11:30:05;;;;;;;8.50;6.40;;;;;;;3.83;75.81;94598.69;5091993;28;20166;-73
2021/01/09 11:32:30;;;;;;;10.65;6.18;;;;;;;4.11;74.91;94587.84;5073757;28;20178;-73
2021/01/09 11:34:56;;;;;;;7.37;5.77;;;;;;;4.10;73.93;94576.50;5073950;28;20181;-73
2021/01/09 11:37:24;;;;;;;9.60;5.50;;;;;;;4.07;74.04;94568.41;5091807;28;20170;-72
2021/01/09 11:39:53;;;;;;;8.05;5.85;;;;;;;3.84;74.59;94559.84;5056708;28;20566;-72
2021/01/09 11:42:20;;;;;;;9.50;6.10;;;;;;;3.82;76.15;94562.81;5091746;28;20261;-72
2021/01/09 11:44:45;;;;;;;9.50;6.25;;;;;;;3.90;75.81;94569.94;5091742;28;20213;-73
2021/01/09 11:47:11;;;;;;;7.30;5.80;;;;;;;4.16;74.49;94577.13;5091838;28;20205;-74
2021/01/09 11:49:36;;;;;;;8.93;5.97;;;;;;;4.13;74.59;94578.50;5091829;28;20627;-72
2021/01/09 11:52:02;;;;;;;8.83;5.93;;;;;;;4.13;74.41;94567.16;5091839;28;20170;-73
2021/01/09 11:54:27;;;;;;;9.37;6.30;;;;;;;4.28;73.94;94569.34;5056785;28;20263;-74
2021/01/09 11:56:54;;;;;;;7.60;5.87;;;;;;;4.44;74.47;94554.56;5073331;28;20564;-75
2021/01/09 11:59:20;;;;;;;10.18;7.13;;;;;;;4.35;74.34;94543.19;5073447;28;20600;-74
2021/01/09 12:01:45;;;;;;;9.87;6.00;;;;;;;4.40;74.29;94539.63;5073539;28;20183;-72